Terminal Aerodrome Forecast
Issued by NWS Melbourne, FL

Home | Current Version | Previous Version | Text Only | Print | Product List | Glossary On
Versions: 1 2 3 4 5 6 7 8 9 10 11 12 13 14 15 16 17 18 19 20 21 22 23 24 25 26 27 28 29 30 31 32 33 34 35 36
000
FTUS42 KMLB 201120
TAFVRB
TAF
KVRB 201120Z 2012/2112 08012G18KT P6SM VCSH SCT025 SCT035 OVC200
     FM201500 09014G21KT P6SM VCSH SCT030 SCT060 BKN200
     FM210100 09012G17KT P6SM VCSH SCT025 BKN250=

USA.gov is the U.S. government's official web portal to all federal, state and local government web resources and services.